sensor_id;sensor_type;location;lat;lon;timestamp;pressure;altitude;pressure_sealevel;temperature;humidity
10958;BME280;5531;42.570;23.676;2022-08-19T00:00:27;91922.88;;;22.93;51.53
10958;BME280;5531;42.570;23.676;2022-08-19T00:02:56;91912.22;;;22.87;51.33
10958;BME280;5531;42.570;23.676;2022-08-19T00:05:25;91914.88;;;22.87;51.52
10958;BME280;5531;42.570;23.676;2022-08-19T00:07:57;91917.00;;;22.91;50.89
10958;BME280;5531;42.570;23.676;2022-08-19T00:10:26;91910.63;;;22.81;51.35
10958;BME280;5531;42.570;23.676;2022-08-19T00:12:55;91911.47;;;22.77;51.80
10958;BME280;5531;42.570;23.676;2022-08-19T00:15:25;91912.56;;;22.70;51.94
10958;BME280;5531;42.570;23.676;2022-08-19T00:17:54;91922.16;;;22.66;51.85
10958;BME280;5531;42.570;23.676;2022-08-19T00:20:24;91920.59;;;22.65;52.02
10958;BME280;5531;42.570;23.676;2022-08-19T00:22:53;91917.09;;;22.65;52.08
10958;BME280;5531;42.570;23.676;2022-08-19T00:25:24;91907.25;;;22.55;52.16
10958;BME280;5531;42.570;23.676;2022-08-19T00:27:53;91922.50;;;22.55;52.28
10958;BME280;5531;42.570;23.676;2022-08-19T00:30:22;91919.03;;;22.44;52.69
10958;BME280;5531;42.570;23.676;2022-08-19T00:32:53;91917.16;;;22.49;52.83
10958;BME280;5531;42.570;23.676;2022-08-19T00:35:23;91918.50;;;22.47;52.50
10958;BME280;5531;42.570;23.676;2022-08-19T00:37:53;91917.16;;;22.49;52.75
10958;BME280;5531;42.570;23.676;2022-08-19T00:40:25;91926.25;;;22.48;52.58
10958;BME280;5531;42.570;23.676;2022-08-19T00:42:56;91924.66;;;22.37;52.94
10958;BME280;5531;42.570;23.676;2022-08-19T00:45:28;91925.19;;;22.44;53.05
10958;BME280;5531;42.570;23.676;2022-08-19T00:48:01;91932.94;;;22.46;53.04
10958;BME280;5531;42.570;23.676;2022-08-19T00:50:33;91928.66;;;22.45;53.45
10958;BME280;5531;42.570;23.676;2022-08-19T00:53:03;91926.75;;;22.50;52.82
10958;BME280;5531;42.570;23.676;2022-08-19T00:55:35;91925.44;;;22.53;53.15
10958;BME280;5531;42.570;23.676;2022-08-19T00:58:09;91921.69;;;22.54;53.27
10958;BME280;5531;42.570;23.676;2022-08-19T01:00:39;91922.50;;;22.55;52.88
10958;BME280;5531;42.570;23.676;2022-08-19T01:03:11;91921.94;;;22.58;53.40
10958;BME280;5531;42.570;23.676;2022-08-19T01:05:42;91929.41;;;22.61;52.48
10958;BME280;5531;42.570;23.676;2022-08-19T01:08:14;91923.81;;;22.62;52.67
10958;BME280;5531;42.570;23.676;2022-08-19T01:10:48;91926.75;;;22.61;53.02
10958;BME280;5531;42.570;23.676;2022-08-19T01:13:21;91930.50;;;22.55;53.02
10958;BME280;5531;42.570;23.676;2022-08-19T01:15:55;91932.66;;;22.47;53.32
10958;BME280;5531;42.570;23.676;2022-08-19T01:18:25;91928.66;;;22.40;53.77
10958;BME280;5531;42.570;23.676;2022-08-19T01:21:00;91927.06;;;22.28;54.43
10958;BME280;5531;42.570;23.676;2022-08-19T01:23:33;91920.44;;;22.00;54.89
10958;BME280;5531;42.570;23.676;2022-08-19T01:26:14;91926.84;;;21.99;54.88
10958;BME280;5531;42.570;23.676;2022-08-19T01:28:46;91914.84;;;21.81;55.36
10958;BME280;5531;42.570;23.676;2022-08-19T01:31:18;91918.06;;;21.68;55.76
10958;BME280;5531;42.570;23.676;2022-08-19T01:33:47;91919.13;;;21.62;55.79
10958;BME280;5531;42.570;23.676;2022-08-19T01:36:26;91917.25;;;21.62;56.46
10958;BME280;5531;42.570;23.676;2022-08-19T01:38:59;91906.56;;;21.62;56.21
10958;BME280;5531;42.570;23.676;2022-08-19T01:41:28;91905.78;;;21.56;56.18
10958;BME280;5531;42.570;23.676;2022-08-19T01:43:57;91903.91;;;21.57;56.35
10958;BME280;5531;42.570;23.676;2022-08-19T01:46:27;91905.53;;;21.58;56.05
10958;BME280;5531;42.570;23.676;2022-08-19T01:48:56;91904.97;;;21.51;56.46
10958;BME280;5531;42.570;23.676;2022-08-19T01:51:26;91899.63;;;21.56;56.46
10958;BME280;5531;42.570;23.676;2022-08-19T01:53:58;91902.03;;;21.57;56.62
10958;BME280;5531;42.570;23.676;2022-08-19T01:56:27;91901.50;;;21.55;55.96
10958;BME280;5531;42.570;23.676;2022-08-19T01:59:00;91912.94;;;21.40;57.02
10958;BME280;5531;42.570;23.676;2022-08-19T02:01:30;91903.41;;;21.50;56.86
10958;BME280;5531;42.570;23.676;2022-08-19T02:04:00;91903.66;;;21.53;56.96
10958;BME280;5531;42.570;23.676;2022-08-19T02:06:29;91898.31;;;21.53;56.90
10958;BME280;5531;42.570;23.676;2022-08-19T02:09:01;91904.44;;;21.59;56.63
10958;BME280;5531;42.570;23.676;2022-08-19T02:11:32;91891.13;;;21.59;56.65
10958;BME280;5531;42.570;23.676;2022-08-19T02:14:03;91899.66;;;21.61;56.14
10958;BME280;5531;42.570;23.676;2022-08-19T02:16:34;91902.34;;;21.61;56.04
10958;BME280;5531;42.570;23.676;2022-08-19T02:19:04;91904.16;;;21.66;56.17
10958;BME280;5531;42.570;23.676;2022-08-19T02:21:33;91901.25;;;21.67;56.04
10958;BME280;5531;42.570;23.676;2022-08-19T02:24:06;91908.19;;;21.73;56.15
10958;BME280;5531;42.570;23.676;2022-08-19T02:26:35;91910.31;;;21.76;55.92
10958;BME280;5531;42.570;23.676;2022-08-19T02:29:04;91910.06;;;21.78;55.86
10958;BME280;5531;42.570;23.676;2022-08-19T02:31:33;91916.72;;;21.81;55.85
10958;BME280;5531;42.570;23.676;2022-08-19T02:34:02;91910.56;;;21.80;55.42
10958;BME280;5531;42.570;23.676;2022-08-19T02:36:31;91913.50;;;21.84;55.87
10958;BME280;5531;42.570;23.676;2022-08-19T02:39:00;91913.22;;;21.85;55.26
10958;BME280;5531;42.570;23.676;2022-08-19T02:41:32;91910.84;;;21.89;55.28
10958;BME280;5531;42.570;23.676;2022-08-19T02:44:03;91915.63;;;21.92;55.57
10958;BME280;5531;42.570;23.676;2022-08-19T02:46:33;91916.72;;;21.91;55.64
10958;BME280;5531;42.570;23.676;2022-08-19T02:49:05;91917.50;;;21.91;55.64
10958;BME280;5531;42.570;23.676;2022-08-19T02:51:37;91918.59;;;21.90;55.61
10958;BME280;5531;42.570;23.676;2022-08-19T02:54:08;91922.84;;;21.91;55.37
10958;BME280;5531;42.570;23.676;2022-08-19T02:56:41;91924.72;;;21.91;55.22
10958;BME280;5531;42.570;23.676;2022-08-19T02:59:11;91923.09;;;21.90;55.49
10958;BME280;5531;42.570;23.676;2022-08-19T03:01:41;91922.31;;;21.89;55.80
10958;BME280;5531;42.570;23.676;2022-08-19T03:04:13;91915.09;;;21.90;55.73
10958;BME280;5531;42.570;23.676;2022-08-19T03:06:44;91920.69;;;21.88;56.00
10958;BME280;5531;42.570;23.676;2022-08-19T03:09:14;91923.13;;;21.85;56.27
10958;BME280;5531;42.570;23.676;2022-08-19T03:11:46;91911.63;;;21.74;56.28
10958;BME280;5531;42.570;23.676;2022-08-19T03:14:16;91915.91;;;21.70;56.22
10958;BME280;5531;42.570;23.676;2022-08-19T03:16:47;91915.66;;;21.61;56.43
10958;BME280;5531;42.570;23.676;2022-08-19T03:19:18;91916.47;;;21.56;56.65
10958;BME280;5531;42.570;23.676;2022-08-19T03:21:48;91920.97;;;21.51;56.78
10958;BME280;5531;42.570;23.676;2022-08-19T03:24:18;91922.31;;;21.48;56.86
10958;BME280;5531;42.570;23.676;2022-08-19T03:26:51;91929.72;;;21.46;57.63
10958;BME280;5531;42.570;23.676;2022-08-19T03:29:24;91923.59;;;21.40;57.80
10958;BME280;5531;42.570;23.676;2022-08-19T03:31:53;91922.25;;;21.38;57.53
10958;BME280;5531;42.570;23.676;2022-08-19T03:34:24;91922.00;;;21.34;57.76
10958;BME280;5531;42.570;23.676;2022-08-19T03:36:54;91924.66;;;21.34;57.93
10958;BME280;5531;42.570;23.676;2022-08-19T03:39:24;91932.91;;;21.33;58.31
10958;BME280;5531;42.570;23.676;2022-08-19T03:41:56;91927.84;;;21.31;58.46
10958;BME280;5531;42.570;23.676;2022-08-19T03:44:29;91923.03;;;21.28;58.25
10958;BME280;5531;42.570;23.676;2022-08-19T03:46:59;91925.69;;;21.18;57.97
10958;BME280;5531;42.570;23.676;2022-08-19T03:49:30;91922.75;;;21.14;58.78
10958;BME280;5531;42.570;23.676;2022-08-19T03:52:01;91929.41;;;21.12;58.79
10958;BME280;5531;42.570;23.676;2022-08-19T03:54:33;91926.47;;;21.03;59.00
10958;BME280;5531;42.570;23.676;2022-08-19T03:57:06;91928.84;;;20.99;59.44
10958;BME280;5531;42.570;23.676;2022-08-19T03:59:38;91934.63;;;20.76;59.81
10958;BME280;5531;42.570;23.676;2022-08-19T04:02:10;91937.34;;;20.86;59.98
10958;BME280;5531;42.570;23.676;2022-08-19T04:04:42;91940.28;;;20.90;59.27
10958;BME280;5531;42.570;23.676;2022-08-19T04:07:13;91936.75;;;20.74;60.56
10958;BME280;5531;42.570;23.676;2022-08-19T04:09:47;91944.19;;;20.66;60.82
10958;BME280;5531;42.570;23.676;2022-08-19T04:12:20;91938.31;;;20.64;60.67
10958;BME280;5531;42.570;23.676;2022-08-19T04:14:49;91948.44;;;20.67;60.42
10958;BME280;5531;42.570;23.676;2022-08-19T04:17:18;91942.06;;;20.68;60.64
10958;BME280;5531;42.570;23.676;2022-08-19T04:19:48;91946.88;;;20.77;60.87
10958;BME280;5531;42.570;23.676;2022-08-19T04:22:17;91941.31;;;20.83;60.26
10958;BME280;5531;42.570;23.676;2022-08-19T04:24:46;91944.22;;;20.77;61.05
10958;BME280;5531;42.570;23.676;2022-08-19T04:27:15;91950.41;;;20.93;60.29
10958;BME280;5531;42.570;23.676;2022-08-19T04:29:46;91946.97;;;21.02;59.78
10958;BME280;5531;42.570;23.676;2022-08-19T04:32:16;91961.88;;;21.09;59.57
10958;BME280;5531;42.570;23.676;2022-08-19T04:34:45;91961.94;;;21.19;59.53
10958;BME280;5531;42.570;23.676;2022-08-19T04:37:14;91961.16;;;21.23;59.30
10958;BME280;5531;42.570;23.676;2022-08-19T04:39:43;91960.66;;;21.32;59.36
10958;BME280;5531;42.570;23.676;2022-08-19T04:42:24;91964.38;;;21.41;59.74
10958;BME280;5531;42.570;23.676;2022-08-19T04:45:10;91950.56;;;21.49;59.15
10958;BME280;5531;42.570;23.676;2022-08-19T04:47:42;91948.44;;;21.56;58.84
10958;BME280;5531;42.570;23.676;2022-08-19T04:50:12;91949.25;;;21.57;58.53
10958;BME280;5531;42.570;23.676;2022-08-19T04:52:41;91942.84;;;21.63;58.75
10958;BME280;5531;42.570;23.676;2022-08-19T04:55:11;91952.47;;;21.79;58.13
10958;BME280;5531;42.570;23.676;2022-08-19T04:57:40;91951.13;;;21.87;57.54
10958;BME280;5531;42.570;23.676;2022-08-19T05:00:13;91950.06;;;21.99;57.54
10958;BME280;5531;42.570;23.676;2022-08-19T05:02:42;91953.22;;;22.11;57.57
10958;BME280;5531;42.570;23.676;2022-08-19T05:05:11;91960.69;;;22.19;57.09
10958;BME280;5531;42.570;23.676;2022-08-19T05:07:40;91957.75;;;22.31;56.10
10958;BME280;5531;42.570;23.676;2022-08-19T05:10:09;91957.22;;;22.44;55.91
10958;BME280;5531;42.570;23.676;2022-08-19T05:12:39;91967.63;;;22.56;56.03
10958;BME280;5531;42.570;23.676;2022-08-19T05:15:11;91964.66;;;22.63;55.78
10958;BME280;5531;42.570;23.676;2022-08-19T05:17:41;91960.88;;;22.74;55.57
10958;BME280;5531;42.570;23.676;2022-08-19T05:20:30;91962.19;;;22.82;54.43
10958;BME280;5531;42.570;23.676;2022-08-19T05:23:12;91968.84;;;22.84;55.02
10958;BME280;5531;42.570;23.676;2022-08-19T05:25:42;91961.88;;;22.94;54.34
10958;BME280;5531;42.570;23.676;2022-08-19T05:28:11;91965.13;;;22.85;54.51
10958;BME280;5531;42.570;23.676;2022-08-19T05:30:43;91947.97;;;22.97;54.58
10958;BME280;5531;42.570;23.676;2022-08-19T05:33:14;91969.00;;;23.24;54.32
10958;BME280;5531;42.570;23.676;2022-08-19T05:35:43;91967.84;;;23.40;54.56
10958;BME280;5531;42.570;23.676;2022-08-19T05:38:14;91961.59;;;23.55;54.49
10958;BME280;5531;42.570;23.676;2022-08-19T05:40:43;91967.13;;;23.69;54.60
10958;BME280;5531;42.570;23.676;2022-08-19T05:43:15;91963.28;;;23.80;53.32
10958;BME280;5531;42.570;23.676;2022-08-19T05:45:47;91968.91;;;23.89;54.21
10958;BME280;5531;42.570;23.676;2022-08-19T05:48:16;91978.72;;;23.99;54.03
10958;BME280;5531;42.570;23.676;2022-08-19T05:50:46;91972.50;;;24.09;53.23
10958;BME280;5531;42.570;23.676;2022-08-19T05:53:16;91962.81;;;24.13;54.52
10958;BME280;5531;42.570;23.676;2022-08-19T05:55:45;91977.13;;;24.27;53.93
10958;BME280;5531;42.570;23.676;2022-08-19T05:58:14;91978.41;;;24.35;53.74
10958;BME280;5531;42.570;23.676;2022-08-19T06:00:43;91972.97;;;24.45;53.77
10958;BME280;5531;42.570;23.676;2022-08-19T06:03:15;91975.81;;;24.54;52.32
10958;BME280;5531;42.570;23.676;2022-08-19T06:05:44;91981.69;;;24.61;52.42
10958;BME280;5531;42.570;23.676;2022-08-19T06:08:13;91981.63;;;24.66;52.18
10958;BME280;5531;42.570;23.676;2022-08-19T06:10:44;91981.78;;;24.75;51.51
10958;BME280;5531;42.570;23.676;2022-08-19T06:13:13;91985.78;;;24.78;51.85
10958;BME280;5531;42.570;23.676;2022-08-19T06:15:43;91988.19;;;24.79;51.34
10958;BME280;5531;42.570;23.676;2022-08-19T06:18:15;91977.63;;;24.88;51.70
10958;BME280;5531;42.570;23.676;2022-08-19T06:20:45;91990.41;;;24.96;51.50
10958;BME280;5531;42.570;23.676;2022-08-19T06:23:14;91985.22;;;25.05;51.95
10958;BME280;5531;42.570;23.676;2022-08-19T06:25:44;91984.31;;;25.15;51.11
10958;BME280;5531;42.570;23.676;2022-08-19T06:28:13;91990.13;;;25.22;51.41
10958;BME280;5531;42.570;23.676;2022-08-19T06:30:42;91996.97;;;25.33;51.30
10958;BME280;5531;42.570;23.676;2022-08-19T06:33:11;91983.97;;;25.46;50.58
10958;BME280;5531;42.570;23.676;2022-08-19T06:35:43;91990.47;;;25.58;49.33
10958;BME280;5531;42.570;23.676;2022-08-19T06:38:12;91993.81;;;25.69;48.91
10958;BME280;5531;42.570;23.676;2022-08-19T06:40:41;91986.72;;;25.78;49.36
10958;BME280;5531;42.570;23.676;2022-08-19T06:43:10;91985.25;;;25.86;49.68
10958;BME280;5531;42.570;23.676;2022-08-19T06:45:41;91999.56;;;26.01;48.53
10958;BME280;5531;42.570;23.676;2022-08-19T06:48:10;91994.63;;;26.08;48.28
10958;BME280;5531;42.570;23.676;2022-08-19T06:50:43;91986.41;;;26.18;48.18
10958;BME280;5531;42.570;23.676;2022-08-19T06:53:13;91995.13;;;26.29;47.58
10958;BME280;5531;42.570;23.676;2022-08-19T06:55:43;91989.94;;;26.32;46.26
10958;BME280;5531;42.570;23.676;2022-08-19T06:58:12;91995.94;;;26.43;47.64
10958;BME280;5531;42.570;23.676;2022-08-19T07:00:41;91991.78;;;26.51;46.16
10958;BME280;5531;42.570;23.676;2022-08-19T07:03:10;91993.19;;;26.62;45.38
10958;BME280;5531;42.570;23.676;2022-08-19T07:05:43;91993.50;;;26.61;45.09
10958;BME280;5531;42.570;23.676;2022-08-19T07:08:12;91996.03;;;26.71;45.02
10958;BME280;5531;42.570;23.676;2022-08-19T07:10:43;91998.94;;;26.75;44.42
10958;BME280;5531;42.570;23.676;2022-08-19T07:13:13;92003.91;;;26.81;44.52
10958;BME280;5531;42.570;23.676;2022-08-19T07:15:42;92003.44;;;26.93;44.89
10958;BME280;5531;42.570;23.676;2022-08-19T07:18:12;92005.22;;;26.98;44.65
10958;BME280;5531;42.570;23.676;2022-08-19T07:20:44;92002.94;;;27.05;45.22
10958;BME280;5531;42.570;23.676;2022-08-19T07:23:14;91996.84;;;27.13;45.09
10958;BME280;5531;42.570;23.676;2022-08-19T07:25:43;92000.84;;;27.16;44.03
10958;BME280;5531;42.570;23.676;2022-08-19T07:28:12;92008.41;;;27.28;44.79
10958;BME280;5531;42.570;23.676;2022-08-19T07:30:41;92002.84;;;27.38;44.37
10958;BME280;5531;42.570;23.676;2022-08-19T07:33:10;92000.38;;;27.41;43.93
10958;BME280;5531;42.570;23.676;2022-08-19T07:35:39;92007.63;;;27.55;43.63
10958;BME280;5531;42.570;23.676;2022-08-19T07:38:12;92011.41;;;27.68;43.74
10958;BME280;5531;42.570;23.676;2022-08-19T07:40:43;92009.69;;;27.72;43.43
10958;BME280;5531;42.570;23.676;2022-08-19T07:43:12;92009.78;;;27.80;42.28
10958;BME280;5531;42.570;23.676;2022-08-19T07:45:41;92007.34;;;27.93;42.21
10958;BME280;5531;42.570;23.676;2022-08-19T07:48:11;92009.16;;;27.97;41.86
10958;BME280;5531;42.570;23.676;2022-08-19T07:50:41;92011.44;;;28.04;42.54
10958;BME280;5531;42.570;23.676;2022-08-19T07:53:13;92007.22;;;28.12;42.02
10958;BME280;5531;42.570;23.676;2022-08-19T07:55:42;92014.09;;;28.18;41.85
10958;BME280;5531;42.570;23.676;2022-08-19T07:58:14;92011.88;;;28.20;41.29
10958;BME280;5531;42.570;23.676;2022-08-19T08:00:53;92002.28;;;28.28;41.20
10958;BME280;5531;42.570;23.676;2022-08-19T08:03:22;92000.41;;;28.37;41.68
10958;BME280;5531;42.570;23.676;2022-08-19T08:06:13;92007.78;;;28.45;40.77
10958;BME280;5531;42.570;23.676;2022-08-19T08:08:57;92004.16;;;28.50;40.36
10958;BME280;5531;42.570;23.676;2022-08-19T08:11:40;92007.63;;;28.64;40.19
10958;BME280;5531;42.570;23.676;2022-08-19T08:14:10;92014.66;;;28.74;39.58
10958;BME280;5531;42.570;23.676;2022-08-19T08:16:39;92009.72;;;28.76;39.28
10958;BME280;5531;42.570;23.676;2022-08-19T08:19:11;92018.69;;;28.85;39.75
10958;BME280;5531;42.570;23.676;2022-08-19T08:21:41;92005.22;;;28.94;38.83
10958;BME280;5531;42.570;23.676;2022-08-19T08:24:14;92008.78;;;29.12;38.33
10958;BME280;5531;42.570;23.676;2022-08-19T08:26:43;92010.50;;;29.31;38.59
10958;BME280;5531;42.570;23.676;2022-08-19T08:29:13;92007.03;;;29.39;37.82
10958;BME280;5531;42.570;23.676;2022-08-19T08:31:43;92012.13;;;29.40;38.33
10958;BME280;5531;42.570;23.676;2022-08-19T08:34:14;92007.50;;;29.41;37.65
10958;BME280;5531;42.570;23.676;2022-08-19T08:36:44;92011.81;;;29.51;38.18
10958;BME280;5531;42.570;23.676;2022-08-19T08:39:18;92001.34;;;29.58;37.00
10958;BME280;5531;42.570;23.676;2022-08-19T08:41:53;91998.22;;;29.65;37.04
10958;BME280;5531;42.570;23.676;2022-08-19T08:44:32;92000.91;;;29.73;36.58
10958;BME280;5531;42.570;23.676;2022-08-19T08:47:13;92000.63;;;29.84;36.42
10958;BME280;5531;42.570;23.676;2022-08-19T08:49:50;92005.25;;;29.92;36.04
10958;BME280;5531;42.570;23.676;2022-08-19T08:52:24;91997.81;;;29.97;36.51
10958;BME280;5531;42.570;23.676;2022-08-19T08:54:59;91997.78;;;30.06;35.21
10958;BME280;5531;42.570;23.676;2022-08-19T08:57:32;91990.66;;;30.10;34.62
10958;BME280;5531;42.570;23.676;2022-08-19T09:00:08;91990.03;;;30.13;34.81
10958;BME280;5531;42.570;23.676;2022-08-19T09:02:38;91986.53;;;30.22;34.93
10958;BME280;5531;42.570;23.676;2022-08-19T09:05:09;91983.03;;;30.30;35.18
10958;BME280;5531;42.570;23.676;2022-08-19T09:07:44;91976.53;;;30.40;34.83
10958;BME280;5531;42.570;23.676;2022-08-19T09:10:29;91984.59;;;30.48;34.80
10958;BME280;5531;42.570;23.676;2022-08-19T09:13:07;91983.00;;;30.56;34.84
10958;BME280;5531;42.570;23.676;2022-08-19T09:15:41;91976.78;;;30.64;33.07
10958;BME280;5531;42.570;23.676;2022-08-19T09:18:12;91978.41;;;30.48;33.90
10958;BME280;5531;42.570;23.676;2022-08-19T09:20:42;91985.38;;;30.66;34.53
10958;BME280;5531;42.570;23.676;2022-08-19T09:23:13;91987.09;;;30.80;32.66
10958;BME280;5531;42.570;23.676;2022-08-19T09:25:45;91980.06;;;30.87;33.17
10958;BME280;5531;42.570;23.676;2022-08-19T09:28:14;91976.25;;;30.97;33.21
10958;BME280;5531;42.570;23.676;2022-08-19T09:30:43;91964.44;;;31.02;32.52
10958;BME280;5531;42.570;23.676;2022-08-19T09:33:12;91975.22;;;31.11;31.61
10958;BME280;5531;42.570;23.676;2022-08-19T09:35:41;91978.41;;;31.13;31.27
10958;BME280;5531;42.570;23.676;2022-08-19T09:38:10;91964.19;;;31.24;31.15
10958;BME280;5531;42.570;23.676;2022-08-19T09:40:39;91973.38;;;31.32;32.10
10958;BME280;5531;42.570;23.676;2022-08-19T09:43:11;91970.22;;;31.30;32.28
10958;BME280;5531;42.570;23.676;2022-08-19T09:45:40;91967.00;;;31.37;32.27
10958;BME280;5531;42.570;23.676;2022-08-19T09:48:09;91968.41;;;31.43;31.30
10958;BME280;5531;42.570;23.676;2022-08-19T09:50:38;91962.94;;;31.52;31.72
10958;BME280;5531;42.570;23.676;2022-08-19T09:53:07;91960.53;;;31.59;31.27
10958;BME280;5531;42.570;23.676;2022-08-19T09:55:41;91959.38;;;31.69;32.21
10958;BME280;5531;42.570;23.676;2022-08-19T09:58:13;91956.03;;;31.63;30.51
10958;BME280;5531;42.570;23.676;2022-08-19T10:00:42;91956.47;;;31.74;30.58
10958;BME280;5531;42.570;23.676;2022-08-19T10:03:11;91959.91;;;31.83;30.03
10958;BME280;5531;42.570;23.676;2022-08-19T10:05:40;91952.56;;;31.84;30.45
10958;BME280;5531;42.570;23.676;2022-08-19T10:08:21;91950.91;;;31.91;30.06
10958;BME280;5531;42.570;23.676;2022-08-19T10:10:51;91942.19;;;31.86;30.65
10958;BME280;5531;42.570;23.676;2022-08-19T10:13:26;91948.66;;;31.93;30.50
10958;BME280;5531;42.570;23.676;2022-08-19T10:16:01;91945.75;;;31.98;30.13
10958;BME280;5531;42.570;23.676;2022-08-19T10:18:31;91946.81;;;32.06;30.54
10958;BME280;5531;42.570;23.676;2022-08-19T10:21:05;91937.56;;;32.07;30.00
10958;BME280;5531;42.570;23.676;2022-08-19T10:23:37;91943.06;;;32.20;30.31
10958;BME280;5531;42.570;23.676;2022-08-19T10:26:12;91942.84;;;32.25;30.02
10958;BME280;5531;42.570;23.676;2022-08-19T10:28:45;91933.97;;;32.37;30.05
10958;BME280;5531;42.570;23.676;2022-08-19T10:31:15;91940.06;;;32.33;29.91
10958;BME280;5531;42.570;23.676;2022-08-19T10:33:45;91935.00;;;32.44;29.41
10958;BME280;5531;42.570;23.676;2022-08-19T10:36:17;91934.69;;;32.46;29.49
10958;BME280;5531;42.570;23.676;2022-08-19T10:38:49;91932.22;;;32.53;29.48
10958;BME280;5531;42.570;23.676;2022-08-19T10:41:21;91933.56;;;32.47;30.50
10958;BME280;5531;42.570;23.676;2022-08-19T10:43:55;91933.13;;;32.57;30.35
10958;BME280;5531;42.570;23.676;2022-08-19T10:46:25;91933.91;;;32.58;30.02
10958;BME280;5531;42.570;23.676;2022-08-19T10:48:59;91946.91;;;32.52;30.38
10958;BME280;5531;42.570;23.676;2022-08-19T10:51:28;91926.63;;;32.37;29.91
10958;BME280;5531;42.570;23.676;2022-08-19T10:54:10;91930.72;;;32.43;30.40
10958;BME280;5531;42.570;23.676;2022-08-19T10:56:39;91926.00;;;32.52;30.14
10958;BME280;5531;42.570;23.676;2022-08-19T10:59:22;91925.63;;;32.63;30.06
10958;BME280;5531;42.570;23.676;2022-08-19T11:01:54;91924.50;;;32.76;30.46
10958;BME280;5531;42.570;23.676;2022-08-19T11:04:27;91926.66;;;32.83;29.34
10958;BME280;5531;42.570;23.676;2022-08-19T11:06:57;91932.19;;;32.86;29.99
10958;BME280;5531;42.570;23.676;2022-08-19T11:09:26;91929.84;;;32.97;28.05
10958;BME280;5531;42.570;23.676;2022-08-19T11:11:58;91928.38;;;33.00;28.13
10958;BME280;5531;42.570;23.676;2022-08-19T11:14:30;91933.56;;;33.05;28.52
10958;BME280;5531;42.570;23.676;2022-08-19T11:16:59;91928.47;;;33.03;27.99
10958;BME280;5531;42.570;23.676;2022-08-19T11:19:29;91924.19;;;33.02;29.43
10958;BME280;5531;42.570;23.676;2022-08-19T11:21:58;91919.09;;;33.01;28.40
10958;BME280;5531;42.570;23.676;2022-08-19T11:24:28;91921.38;;;33.11;28.56
10958;BME280;5531;42.570;23.676;2022-08-19T11:27:02;91926.59;;;33.16;28.33
10958;BME280;5531;42.570;23.676;2022-08-19T11:29:36;91930.28;;;33.12;28.88
10958;BME280;5531;42.570;23.676;2022-08-19T11:32:08;91921.16;;;33.04;28.78
10958;BME280;5531;42.570;23.676;2022-08-19T11:34:39;91922.03;;;33.08;28.93
10958;BME280;5531;42.570;23.676;2022-08-19T11:37:08;91921.69;;;33.10;28.85
10958;BME280;5531;42.570;23.676;2022-08-19T11:39:37;91921.69;;;33.10;28.53
10958;BME280;5531;42.570;23.676;2022-08-19T11:42:06;91912.44;;;33.11;28.36
10958;BME280;5531;42.570;23.676;2022-08-19T11:44:50;91908.03;;;33.06;29.28
10958;BME280;5531;42.570;23.676;2022-08-19T11:47:20;91908.34;;;33.04;28.84
10958;BME280;5531;42.570;23.676;2022-08-19T11:49:50;91900.56;;;33.15;29.05
10958;BME280;5531;42.570;23.676;2022-08-19T11:52:19;91902.50;;;33.27;29.08
10958;BME280;5531;42.570;23.676;2022-08-19T11:54:48;91901.03;;;33.30;28.23
10958;BME280;5531;42.570;23.676;2022-08-19T11:57:17;91889.41;;;33.17;28.85
10958;BME280;5531;42.570;23.676;2022-08-19T11:59:52;91895.38;;;33.35;29.46
10958;BME280;5531;42.570;23.676;2022-08-19T12:02:21;91892.88;;;33.42;28.40
10958;BME280;5531;42.570;23.676;2022-08-19T12:04:51;91893.53;;;33.51;28.37
10958;BME280;5531;42.570;23.676;2022-08-19T12:07:20;91895.81;;;33.49;28.64
10958;BME280;5531;42.570;23.676;2022-08-19T12:09:50;91875.09;;;33.45;27.86
10958;BME280;5531;42.570;23.676;2022-08-19T12:12:20;91882.34;;;33.40;28.56
10958;BME280;5531;42.570;23.676;2022-08-19T12:14:53;91879.53;;;33.37;28.94
10958;BME280;5531;42.570;23.676;2022-08-19T12:17:24;91882.22;;;33.00;28.14
10958;BME280;5531;42.570;23.676;2022-08-19T12:19:54;91870.94;;;33.10;29.32
10958;BME280;5531;42.570;23.676;2022-08-19T12:22:23;91878.41;;;33.25;28.97
10958;BME280;5531;42.570;23.676;2022-08-19T12:24:54;91875.78;;;33.41;28.36
10958;BME280;5531;42.570;23.676;2022-08-19T12:27:24;91876.81;;;33.37;29.00
10958;BME280;5531;42.570;23.676;2022-08-19T12:29:56;91870.34;;;33.41;29.28
10958;BME280;5531;42.570;23.676;2022-08-19T12:32:27;91867.59;;;33.54;27.68
10958;BME280;5531;42.570;23.676;2022-08-19T12:34:56;91853.69;;;33.55;27.86
10958;BME280;5531;42.570;23.676;2022-08-19T12:37:25;91851.78;;;33.56;27.16
10958;BME280;5531;42.570;23.676;2022-08-19T12:39:55;91846.53;;;33.63;27.55
10958;BME280;5531;42.570;23.676;2022-08-19T12:42:24;91852.31;;;33.74;28.17
10958;BME280;5531;42.570;23.676;2022-08-19T12:44:56;91844.34;;;33.81;27.76
10958;BME280;5531;42.570;23.676;2022-08-19T12:47:25;91846.13;;;33.89;27.81
10958;BME280;5531;42.570;23.676;2022-08-19T12:49:56;91845.53;;;33.96;27.35
10958;BME280;5531;42.570;23.676;2022-08-19T12:52:25;91839.66;;;33.94;27.67
10958;BME280;5531;42.570;23.676;2022-08-19T12:54:56;91846.53;;;34.04;27.79
10958;BME280;5531;42.570;23.676;2022-08-19T12:57:27;91847.53;;;34.11;27.00
10958;BME280;5531;42.570;23.676;2022-08-19T13:00:03;91848.41;;;34.15;26.75
10958;BME280;5531;42.570;23.676;2022-08-19T13:02:34;91849.25;;;34.04;26.45
10958;BME280;5531;42.570;23.676;2022-08-19T13:05:05;91843.72;;;34.00;26.98
10958;BME280;5531;42.570;23.676;2022-08-19T13:07:34;91838.63;;;33.58;28.18
10958;BME280;5531;42.570;23.676;2022-08-19T13:10:05;91848.09;;;33.76;28.03
10958;BME280;5531;42.570;23.676;2022-08-19T13:12:35;91850.09;;;33.92;27.32
10958;BME280;5531;42.570;23.676;2022-08-19T13:15:08;91847.03;;;33.93;27.34
10958;BME280;5531;42.570;23.676;2022-08-19T13:17:38;91840.78;;;33.93;27.42
10958;BME280;5531;42.570;23.676;2022-08-19T13:20:10;91847.81;;;33.94;28.13